sensor_id;sensor_type;location;lat;lon;timestamp;pressure;altitude;pressure_sealevel;temperature;humidity
10474;BME280;5284;50.446;7.904;2023-02-28T00:02:54;99523.38;;;0.23;100.00
10474;BME280;5284;50.446;7.904;2023-02-28T00:07:57;99515.69;;;0.17;100.00
10474;BME280;5284;50.446;7.904;2023-02-28T00:13:02;99519.31;;;0.11;100.00
10474;BME280;5284;50.446;7.904;2023-02-28T00:18:07;99515.97;;;0.06;100.00
10474;BME280;5284;50.446;7.904;2023-02-28T00:23:10;99509.22;;;-0.02;100.00
10474;BME280;5284;50.446;7.904;2023-02-28T00:28:13;99508.50;;;-0.07;100.00
10474;BME280;5284;50.446;7.904;2023-02-28T00:33:18;99506.13;;;-0.16;100.00
10474;BME280;5284;50.446;7.904;2023-02-28T00:38:21;99516.78;;;-0.22;100.00
10474;BME280;5284;50.446;7.904;2023-02-28T00:43:24;99516.94;;;-0.28;100.00
10474;BME280;5284;50.446;7.904;2023-02-28T00:48:28;99515.31;;;-0.32;100.00
10474;BME280;5284;50.446;7.904;2023-02-28T00:53:31;99510.19;;;-0.36;100.00
10474;BME280;5284;50.446;7.904;2023-02-28T00:58:35;99510.22;;;-0.38;100.00
10474;BME280;5284;50.446;7.904;2023-02-28T01:03:39;99513.03;;;-0.45;100.00
10474;BME280;5284;50.446;7.904;2023-02-28T01:08:42;99505.28;;;-0.50;100.00
10474;BME280;5284;50.446;7.904;2023-02-28T01:13:45;99503.56;;;-0.51;100.00
10474;BME280;5284;50.446;7.904;2023-02-28T01:18:49;99500.13;;;-0.53;100.00
10474;BME280;5284;50.446;7.904;2023-02-28T01:23:56;99500.16;;;-0.54;100.00
10474;BME280;5284;50.446;7.904;2023-02-28T01:28:59;99503.56;;;-0.51;100.00
10474;BME280;5284;50.446;7.904;2023-02-28T01:34:04;99506.94;;;-0.46;100.00
10474;BME280;5284;50.446;7.904;2023-02-28T01:39:06;99500.72;;;-0.42;100.00
10474;BME280;5284;50.446;7.904;2023-02-28T01:49:47;99498.31;;;-0.49;100.00
10474;BME280;5284;50.446;7.904;2023-02-28T01:54:52;99493.28;;;-0.57;100.00
10474;BME280;5284;50.446;7.904;2023-02-28T01:59:58;99493.34;;;-0.60;100.00
10474;BME280;5284;50.446;7.904;2023-02-28T02:05:17;99493.53;;;-0.67;100.00
10474;BME280;5284;50.446;7.904;2023-02-28T02:10:24;99486.69;;;-0.73;100.00
10474;BME280;5284;50.446;7.904;2023-02-28T02:15:33;99487.66;;;-0.77;100.00
10474;BME280;5284;50.446;7.904;2023-02-28T02:26:59;99474.97;;;-0.92;100.00
10474;BME280;5284;50.446;7.904;2023-02-28T02:37:50;99471.72;;;-1.03;100.00
10474;BME280;5284;50.446;7.904;2023-02-28T02:42:58;99474.41;;;-1.04;100.00
10474;BME280;5284;50.446;7.904;2023-02-28T02:48:06;99473.59;;;-1.08;100.00
10474;BME280;5284;50.446;7.904;2023-02-28T02:53:14;99477.28;;;-1.15;100.00
10474;BME280;5284;50.446;7.904;2023-02-28T02:58:23;99472.13;;;-1.18;100.00
10474;BME280;5284;50.446;7.904;2023-02-28T03:03:28;99474.81;;;-1.21;100.00
10474;BME280;5284;50.446;7.904;2023-02-28T03:08:36;99479.22;;;-1.23;100.00
10474;BME280;5284;50.446;7.904;2023-02-28T03:13:50;99480.19;;;-1.27;100.00
10474;BME280;5284;50.446;7.904;2023-02-28T03:19:03;99483.69;;;-1.28;100.00
10474;BME280;5284;50.446;7.904;2023-02-28T03:24:16;99478.47;;;-1.29;100.00
10474;BME280;5284;50.446;7.904;2023-02-28T03:29:27;99476.00;;;-1.34;100.00
10474;BME280;5284;50.446;7.904;2023-02-28T03:34:33;99475.19;;;-1.36;100.00
10474;BME280;5284;50.446;7.904;2023-02-28T03:39:41;99469.97;;;-1.39;100.00
10474;BME280;5284;50.446;7.904;2023-02-28T03:44:47;99469.16;;;-1.41;100.00
10474;BME280;5284;50.446;7.904;2023-02-28T03:49:55;99470.06;;;-1.42;100.00
10474;BME280;5284;50.446;7.904;2023-02-28T03:55:02;99476.25;;;-1.46;100.00
10474;BME280;5284;50.446;7.904;2023-02-28T04:00:12;99475.34;;;-1.43;100.00
10474;BME280;5284;50.446;7.904;2023-02-28T04:05:16;99469.38;;;-1.50;100.00
10474;BME280;5284;50.446;7.904;2023-02-28T04:10:21;99479.91;;;-1.52;100.00
10474;BME280;5284;50.446;7.904;2023-02-28T04:15:24;99484.31;;;-1.54;100.00
10474;BME280;5284;50.446;7.904;2023-02-28T04:20:28;99480.88;;;-1.58;100.00
10474;BME280;5284;50.446;7.904;2023-02-28T04:25:33;99481.00;;;-1.62;100.00
10474;BME280;5284;50.446;7.904;2023-02-28T04:30:37;99481.00;;;-1.62;100.00
10474;BME280;5284;50.446;7.904;2023-02-28T04:35:40;99479.38;;;-1.66;100.00
10474;BME280;5284;50.446;7.904;2023-02-28T04:40:44;99487.19;;;-1.66;100.00
10474;BME280;5284;50.446;7.904;2023-02-28T04:45:47;99484.59;;;-1.68;100.00
10474;BME280;5284;50.446;7.904;2023-02-28T04:50:50;99490.75;;;-1.70;100.00
10474;BME280;5284;50.446;7.904;2023-02-28T04:55:55;99480.28;;;-1.70;100.00
10474;BME280;5284;50.446;7.904;2023-02-28T05:01:01;99480.41;;;-1.75;100.00
10474;BME280;5284;50.446;7.904;2023-02-28T05:06:05;99494.31;;;-1.73;100.00
10474;BME280;5284;50.446;7.904;2023-02-28T05:11:14;99496.16;;;-1.78;100.00
10474;BME280;5284;50.446;7.904;2023-02-28T05:16:18;99498.94;;;-1.85;100.00
10474;BME280;5284;50.446;7.904;2023-02-28T05:21:28;99494.66;;;-1.89;100.00
10474;BME280;5284;50.446;7.904;2023-02-28T05:26:36;99496.53;;;-1.96;100.00
10474;BME280;5284;50.446;7.904;2023-02-28T05:31:39;99500.03;;;-1.97;100.00
10474;BME280;5284;50.446;7.904;2023-02-28T05:36:42;99493.19;;;-2.02;100.00
10474;BME280;5284;50.446;7.904;2023-02-28T05:41:47;99505.38;;;-2.03;100.00
10474;BME280;5284;50.446;7.904;2023-02-28T05:46:50;99500.16;;;-2.04;100.00
10474;BME280;5284;50.446;7.904;2023-02-28T05:51:53;99502.78;;;-2.03;100.00
10474;BME280;5284;50.446;7.904;2023-02-28T05:56:57;99504.50;;;-2.02;100.00
10474;BME280;5284;50.446;7.904;2023-02-28T06:02:00;99505.25;;;-1.97;100.00
10474;BME280;5284;50.446;7.904;2023-02-28T06:07:03;99506.97;;;-1.96;100.00
10474;BME280;5284;50.446;7.904;2023-02-28T06:12:07;99502.63;;;-1.95;100.00
10474;BME280;5284;50.446;7.904;2023-02-28T06:17:11;99504.28;;;-1.91;100.00
10474;BME280;5284;50.446;7.904;2023-02-28T06:22:14;99511.19;;;-1.89;100.00
10474;BME280;5284;50.446;7.904;2023-02-28T06:27:18;99519.88;;;-1.87;100.00
10474;BME280;5284;50.446;7.904;2023-02-28T06:32:22;99524.16;;;-1.84;100.00
10474;BME280;5284;50.446;7.904;2023-02-28T06:37:25;99524.84;;;-1.76;100.00
10474;BME280;5284;50.446;7.904;2023-02-28T06:42:30;99527.19;;;-1.63;100.00
10474;BME280;5284;50.446;7.904;2023-02-28T06:47:33;99536.59;;;-1.53;100.00
10474;BME280;5284;50.446;7.904;2023-02-28T06:52:36;99528.53;;;-1.44;100.00
10474;BME280;5284;50.446;7.904;2023-02-28T06:57:41;99534.25;;;-1.27;100.00
10474;BME280;5284;50.446;7.904;2023-02-28T07:02:44;99538.53;;;-0.87;100.00
10474;BME280;5284;50.446;7.904;2023-02-28T07:07:47;99534.59;;;-0.69;100.00
10474;BME280;5284;50.446;7.904;2023-02-28T07:12:53;99543.88;;;-0.56;100.00
10474;BME280;5284;50.446;7.904;2023-02-28T07:17:56;99546.94;;;-0.39;96.86
10474;BME280;5284;50.446;7.904;2023-02-28T07:22:59;99549.41;;;-0.02;95.23
10474;BME280;5284;50.446;7.904;2023-02-28T07:28:04;99546.41;;;-0.20;94.22
10474;BME280;5284;50.446;7.904;2023-02-28T07:33:07;99538.91;;;-0.33;93.22
10474;BME280;5284;50.446;7.904;2023-02-28T07:38:09;99551.00;;;-0.28;93.15
10474;BME280;5284;50.446;7.904;2023-02-28T07:43:15;99539.94;;;-0.07;91.65
10474;BME280;5284;50.446;7.904;2023-02-28T07:48:18;99544.06;;;0.62;88.36
10474;BME280;5284;50.446;7.904;2023-02-28T07:53:21;99538.31;;;0.79;84.87
10474;BME280;5284;50.446;7.904;2023-02-28T07:58:26;99545.28;;;1.07;84.16
10474;BME280;5284;50.446;7.904;2023-02-28T08:03:30;99539.31;;;1.30;78.77
10474;BME280;5284;50.446;7.904;2023-02-28T08:08:33;99542.59;;;1.62;77.22
10474;BME280;5284;50.446;7.904;2023-02-28T08:13:40;99534.19;;;1.51;72.69
10474;BME280;5284;50.446;7.904;2023-02-28T08:18:45;99539.81;;;1.66;70.83
10474;BME280;5284;50.446;7.904;2023-02-28T08:23:49;99536.56;;;1.84;68.47
10474;BME280;5284;50.446;7.904;2023-02-28T08:28:54;99540.78;;;1.90;68.19
10474;BME280;5284;50.446;7.904;2023-02-28T08:34:05;99529.53;;;1.85;67.42
10474;BME280;5284;50.446;7.904;2023-02-28T08:39:08;99537.75;;;2.00;66.36
10474;BME280;5284;50.446;7.904;2023-02-28T08:44:13;99535.06;;;2.02;64.96
10474;BME280;5284;50.446;7.904;2023-02-28T08:49:16;99533.66;;;2.16;63.37
10474;BME280;5284;50.446;7.904;2023-02-28T08:54:19;99537.84;;;1.97;62.94
10474;BME280;5284;50.446;7.904;2023-02-28T08:59:23;99545.16;;;1.89;62.77
10474;BME280;5284;50.446;7.904;2023-02-28T09:04:26;99545.41;;;2.31;62.24
10474;BME280;5284;50.446;7.904;2023-02-28T09:09:32;99551.22;;;2.16;60.70
10474;BME280;5284;50.446;7.904;2023-02-28T09:14:36;99548.13;;;2.52;61.32
10474;BME280;5284;50.446;7.904;2023-02-28T09:19:39;99551.59;;;2.30;59.74
10474;BME280;5284;50.446;7.904;2023-02-28T09:24:44;99544.63;;;2.52;59.06
10474;BME280;5284;50.446;7.904;2023-02-28T09:29:48;99545.53;;;2.74;59.08
10474;BME280;5284;50.446;7.904;2023-02-28T09:34:51;99542.63;;;2.81;58.00
10474;BME280;5284;50.446;7.904;2023-02-28T09:39:54;99545.56;;;2.95;57.19
10474;BME280;5284;50.446;7.904;2023-02-28T09:44:58;99557.38;;;2.85;56.30
10474;BME280;5284;50.446;7.904;2023-02-28T09:50:09;99553.34;;;2.98;57.09
10474;BME280;5284;50.446;7.904;2023-02-28T09:55:28;99547.56;;;3.11;58.08
10474;BME280;5284;50.446;7.904;2023-02-28T10:00:40;99547.09;;;3.45;57.70
10474;BME280;5284;50.446;7.904;2023-02-28T10:05:47;99544.13;;;3.31;57.17
10474;BME280;5284;50.446;7.904;2023-02-28T10:10:55;99547.78;;;2.84;57.42
10474;BME280;5284;50.446;7.904;2023-02-28T10:16:05;99540.06;;;3.65;56.96
10474;BME280;5284;50.446;7.904;2023-02-28T10:21:16;99545.91;;;3.52;56.36
10474;BME280;5284;50.446;7.904;2023-02-28T10:26:22;99544.38;;;3.88;55.06
10474;BME280;5284;50.446;7.904;2023-02-28T10:31:27;99547.25;;;4.42;54.69
10474;BME280;5284;50.446;7.904;2023-02-28T10:36:30;99544.34;;;3.68;53.25
10474;BME280;5284;50.446;7.904;2023-02-28T10:41:42;99545.19;;;4.86;53.95
10474;BME280;5284;50.446;7.904;2023-02-28T10:46:46;99539.81;;;4.88;52.58
10474;BME280;5284;50.446;7.904;2023-02-28T10:51:54;99537.44;;;5.37;51.46
10474;BME280;5284;50.446;7.904;2023-02-28T10:57:16;99544.31;;;5.23;50.81
10474;BME280;5284;50.446;7.904;2023-02-28T11:02:32;99536.19;;;5.09;49.65
10474;BME280;5284;50.446;7.904;2023-02-28T11:07:37;99555.13;;;4.43;50.81
10474;BME280;5284;50.446;7.904;2023-02-28T11:12:54;99546.69;;;3.54;52.31
10474;BME280;5284;50.446;7.904;2023-02-28T11:18:14;99544.66;;;3.39;52.98
10474;BME280;5284;50.446;7.904;2023-02-28T11:23:21;99545.97;;;3.29;52.41
10474;BME280;5284;50.446;7.904;2023-02-28T11:28:28;99546.41;;;4.21;52.63
10474;BME280;5284;50.446;7.904;2023-02-28T11:33:41;99527.69;;;5.73;50.83
10474;BME280;5284;50.446;7.904;2023-02-28T11:38:47;99528.13;;;6.16;49.66
10474;BME280;5284;50.446;7.904;2023-02-28T11:44:05;99525.50;;;5.47;48.52
10474;BME280;5284;50.446;7.904;2023-02-28T11:49:30;99531.88;;;4.69;49.60
10474;BME280;5284;50.446;7.904;2023-02-28T11:54:55;99525.31;;;4.96;49.39
10474;BME280;5284;50.446;7.904;2023-02-28T12:00:08;99516.97;;;6.27;48.67
10474;BME280;5284;50.446;7.904;2023-02-28T12:05:25;99510.69;;;7.54;48.62
10474;BME280;5284;50.446;7.904;2023-02-28T12:10:37;99516.19;;;7.52;48.02
10474;BME280;5284;50.446;7.904;2023-02-28T12:21:40;99506.25;;;8.14;45.64
10474;BME280;5284;50.446;7.904;2023-02-28T12:26:48;99499.88;;;8.60;44.96
10474;BME280;5284;50.446;7.904;2023-02-28T12:31:58;99503.81;;;9.49;44.40
10474;BME280;5284;50.446;7.904;2023-02-28T12:37:10;99511.09;;;9.59;42.51
10474;BME280;5284;50.446;7.904;2023-02-28T12:42:19;99498.47;;;10.02;43.08
10474;BME280;5284;50.446;7.904;2023-02-28T12:47:26;99502.00;;;9.23;43.66
10474;BME280;5284;50.446;7.904;2023-02-28T12:52:37;99495.75;;;9.10;43.76
10474;BME280;5284;50.446;7.904;2023-02-28T12:57:49;99505.03;;;7.90;43.66
10474;BME280;5284;50.446;7.904;2023-02-28T13:03:08;99487.50;;;8.31;44.01
10474;BME280;5284;50.446;7.904;2023-02-28T13:08:41;99490.47;;;8.68;44.09
10474;BME280;5284;50.446;7.904;2023-02-28T13:13:58;99475.06;;;6.98;46.53
10474;BME280;5284;50.446;7.904;2023-02-28T13:19:09;99485.59;;;6.52;48.04
10474;BME280;5284;50.446;7.904;2023-02-28T13:24:42;99479.84;;;5.95;48.69
10474;BME280;5284;50.446;7.904;2023-02-28T13:29:45;99492.19;;;5.96;49.75
10474;BME280;5284;50.446;7.904;2023-02-28T13:35:14;99492.16;;;6.12;49.30
10474;BME280;5284;50.446;7.904;2023-02-28T13:40:32;99485.66;;;5.50;49.66
10474;BME280;5284;50.446;7.904;2023-02-28T13:45:38;99485.22;;;5.24;50.31
10474;BME280;5284;50.446;7.904;2023-02-28T13:50:48;99478.78;;;4.94;49.99
10474;BME280;5284;50.446;7.904;2023-02-28T13:55:57;99482.38;;;5.10;51.91
10474;BME280;5284;50.446;7.904;2023-02-28T14:01:11;99474.63;;;4.88;51.32
10474;BME280;5284;50.446;7.904;2023-02-28T14:06:23;99476.25;;;4.72;52.47
10474;BME280;5284;50.446;7.904;2023-02-28T14:11:34;99474.66;;;4.70;51.88
10474;BME280;5284;50.446;7.904;2023-02-28T14:16:40;99464.41;;;4.62;53.62
10474;BME280;5284;50.446;7.904;2023-02-28T14:21:53;99473.75;;;4.51;53.39
10474;BME280;5284;50.446;7.904;2023-02-28T14:27:16;99466.41;;;4.39;54.00
10474;BME280;5284;50.446;7.904;2023-02-28T14:32:28;99463.91;;;4.36;53.56
10474;BME280;5284;50.446;7.904;2023-02-28T14:37:38;99460.72;;;4.48;53.89
10474;BME280;5284;50.446;7.904;2023-02-28T14:42:54;99459.56;;;4.35;54.65
10474;BME280;5284;50.446;7.904;2023-02-28T14:47:58;99460.03;;;4.25;55.28
10474;BME280;5284;50.446;7.904;2023-02-28T14:53:03;99459.63;;;4.34;54.58
10474;BME280;5284;50.446;7.904;2023-02-28T14:58:22;99449.31;;;4.66;54.52
10474;BME280;5284;50.446;7.904;2023-02-28T15:03:30;99443.53;;;4.76;53.99
10474;BME280;5284;50.446;7.904;2023-02-28T15:08:34;99443.25;;;4.64;55.28
10474;BME280;5284;50.446;7.904;2023-02-28T15:13:42;99440.94;;;4.56;54.10
10474;BME280;5284;50.446;7.904;2023-02-28T15:18:48;99439.22;;;4.55;54.73
10474;BME280;5284;50.446;7.904;2023-02-28T15:23:56;99443.38;;;4.43;54.17
10474;BME280;5284;50.446;7.904;2023-02-28T15:29:04;99445.44;;;4.36;55.07
10474;BME280;5284;50.446;7.904;2023-02-28T15:34:17;99447.44;;;4.31;55.40
10474;BME280;5284;50.446;7.904;2023-02-28T15:39:24;99449.47;;;4.25;53.88
10474;BME280;5284;50.446;7.904;2023-02-28T15:44:34;99443.41;;;4.23;54.67
10474;BME280;5284;50.446;7.904;2023-02-28T15:49:44;99446.63;;;4.11;56.05
10474;BME280;5284;50.446;7.904;2023-02-28T15:54:48;99441.91;;;4.17;55.09
10474;BME280;5284;50.446;7.904;2023-02-28T15:59:55;99442.38;;;4.07;56.68
10474;BME280;5284;50.446;7.904;2023-02-28T16:05:19;99447.13;;;4.19;56.62
10474;BME280;5284;50.446;7.904;2023-02-28T16:10:25;99452.22;;;4.03;56.36
10474;BME280;5284;50.446;7.904;2023-02-28T16:15:35;99449.78;;;3.99;56.67
10474;BME280;5284;50.446;7.904;2023-02-28T16:20:43;99453.50;;;3.95;57.29
10474;BME280;5284;50.446;7.904;2023-02-28T16:25:46;99456.06;;;3.96;57.68
10474;BME280;5284;50.446;7.904;2023-02-28T16:30:52;99458.31;;;3.85;57.25
10474;BME280;5284;50.446;7.904;2023-02-28T16:35:56;99455.88;;;3.81;58.04
10474;BME280;5284;50.446;7.904;2023-02-28T16:40:59;99459.63;;;3.75;58.16
10474;BME280;5284;50.446;7.904;2023-02-28T16:46:04;99470.59;;;3.66;58.63
10474;BME280;5284;50.446;7.904;2023-02-28T16:51:11;99478.28;;;3.51;58.77
10474;BME280;5284;50.446;7.904;2023-02-28T16:56:17;99478.31;;;3.29;59.21
10474;BME280;5284;50.446;7.904;2023-02-28T17:01:22;99484.19;;;3.14;60.64
10474;BME280;5284;50.446;7.904;2023-02-28T17:06:27;99484.88;;;2.98;61.13
10474;BME280;5284;50.446;7.904;2023-02-28T17:11:31;99489.03;;;2.82;61.65
10474;BME280;5284;50.446;7.904;2023-02-28T17:16:37;99498.38;;;2.68;62.35
10474;BME280;5284;50.446;7.904;2023-02-28T17:21:43;99508.28;;;2.61;63.30
10474;BME280;5284;50.446;7.904;2023-02-28T17:26:46;99513.22;;;2.47;64.71
10474;BME280;5284;50.446;7.904;2023-02-28T17:31:52;99518.13;;;2.33;65.02
10474;BME280;5284;50.446;7.904;2023-02-28T17:36:55;99523.06;;;2.18;66.34
10474;BME280;5284;50.446;7.904;2023-02-28T17:41:59;99528.66;;;2.09;68.78
10474;BME280;5284;50.446;7.904;2023-02-28T17:47:03;99529.13;;;1.97;69.43
10474;BME280;5284;50.446;7.904;2023-02-28T17:52:07;99536.50;;;1.86;70.76
10474;BME280;5284;50.446;7.904;2023-02-28T17:57:12;99536.72;;;1.80;70.84
10474;BME280;5284;50.446;7.904;2023-02-28T18:02:18;99543.31;;;1.67;71.65
10474;BME280;5284;50.446;7.904;2023-02-28T18:07:21;99543.66;;;1.56;74.64
10474;BME280;5284;50.446;7.904;2023-02-28T18:12:27;99534.31;;;1.48;74.01
10474;BME280;5284;50.446;7.904;2023-02-28T18:17:32;99538.22;;;1.37;76.00
10474;BME280;5284;50.446;7.904;2023-02-28T18:22:36;99535.94;;;1.26;78.00
10474;BME280;5284;50.446;7.904;2023-02-28T18:27:40;99548.53;;;1.15;80.92
10474;BME280;5284;50.446;7.904;2023-02-28T18:33:02;99551.56;;;1.02;83.29
10474;BME280;5284;50.446;7.904;2023-02-28T18:38:08;99555.38;;;0.93;83.74
10474;BME280;5284;50.446;7.904;2023-02-28T18:43:12;99546.91;;;0.84;84.35
10474;BME280;5284;50.446;7.904;2023-02-28T18:48:16;99542.78;;;0.75;85.58
10474;BME280;5284;50.446;7.904;2023-02-28T18:53:20;99536.00;;;0.68;87.62
10474;BME280;5284;50.446;7.904;2023-02-28T18:58:24;99539.66;;;0.63;87.19
10474;BME280;5284;50.446;7.904;2023-02-28T19:03:30;99546.91;;;0.55;87.78
10474;BME280;5284;50.446;7.904;2023-02-28T19:08:38;99541.97;;;0.44;89.14
10474;BME280;5284;50.446;7.904;2023-02-28T19:13:41;99547.38;;;0.40;90.51
10474;BME280;5284;50.446;7.904;2023-02-28T19:18:46;99545.78;;;0.33;90.39
10474;BME280;5284;50.446;7.904;2023-02-28T19:23:49;99554.66;;;0.29;89.81
10474;BME280;5284;50.446;7.904;2023-02-28T19:28:52;99547.78;;;0.25;89.88
10474;BME280;5284;50.446;7.904;2023-02-28T19:33:56;99548.78;;;0.21;90.08
10474;BME280;5284;50.446;7.904;2023-02-28T19:38:59;99548.84;;;0.19;88.11
10474;BME280;5284;50.446;7.904;2023-02-28T19:44:03;99558.53;;;0.16;88.63
10474;BME280;5284;50.446;7.904;2023-02-28T19:49:07;99555.94;;;0.14;89.40
10474;BME280;5284;50.446;7.904;2023-02-28T19:54:10;99561.84;;;0.22;89.10
10474;BME280;5284;50.446;7.904;2023-02-28T19:59:13;99558.97;;;0.31;87.86
10474;BME280;5284;50.446;7.904;2023-02-28T20:04:33;99565.06;;;0.32;88.37
10474;BME280;5284;50.446;7.904;2023-02-28T20:09:36;99563.25;;;0.34;87.96
10474;BME280;5284;50.446;7.904;2023-02-28T20:14:41;99550.19;;;0.32;88.52
10474;BME280;5284;50.446;7.904;2023-02-28T20:19:45;99547.56;;;0.32;88.94
10474;BME280;5284;50.446;7.904;2023-02-28T20:24:48;99554.50;;;0.35;88.92
10474;BME280;5284;50.446;7.904;2023-02-28T20:29:51;99543.94;;;0.38;88.35
10474;BME280;5284;50.446;7.904;2023-02-28T20:34:55;99545.75;;;0.36;89.32
10474;BME280;5284;50.446;7.904;2023-02-28T20:39:58;99550.09;;;0.35;89.48
10474;BME280;5284;50.446;7.904;2023-02-28T20:45:02;99550.09;;;0.37;89.51
10474;BME280;5284;50.446;7.904;2023-02-28T20:50:08;99544.78;;;0.38;89.40
10474;BME280;5284;50.446;7.904;2023-02-28T20:55:12;99547.47;;;0.35;90.83
10474;BME280;5284;50.446;7.904;2023-02-28T21:00:15;99532.75;;;0.31;91.19
10474;BME280;5284;50.446;7.904;2023-02-28T21:05:21;99543.16;;;0.33;91.34
10474;BME280;5284;50.446;7.904;2023-02-28T21:11:37;99540.63;;;0.30;91.29
10474;BME280;5284;50.446;7.904;2023-02-28T21:17:05;99530.34;;;0.24;92.20
10474;BME280;5284;50.446;7.904;2023-02-28T21:22:13;99537.38;;;0.22;92.66
10474;BME280;5284;50.446;7.904;2023-02-28T21:27:16;99540.09;;;0.19;92.72
10474;BME280;5284;50.446;7.904;2023-02-28T21:32:19;99541.03;;;0.16;93.63
10474;BME280;5284;50.446;7.904;2023-02-28T21:37:24;99540.34;;;0.10;93.96
10474;BME280;5284;50.446;7.904;2023-02-28T21:42:27;99544.09;;;0.01;94.59
10474;BME280;5284;50.446;7.904;2023-02-28T21:47:30;99545.91;;;-0.02;95.69
10474;BME280;5284;50.446;7.904;2023-02-28T21:52:34;99543.38;;;-0.05;94.61
10474;BME280;5284;50.446;7.904;2023-02-28T21:57:37;99531.41;;;-0.13;95.96
10474;BME280;5284;50.446;7.904;2023-02-28T22:02:40;99534.09;;;-0.16;97.34
10474;BME280;5284;50.446;7.904;2023-02-28T22:07:44;99536.91;;;-0.24;97.19
10474;BME280;5284;50.446;7.904;2023-02-28T22:12:47;99547.31;;;-0.21;97.09
10474;BME280;5284;50.446;7.904;2023-02-28T22:17:50;99550.84;;;-0.22;97.80
10474;BME280;5284;50.446;7.904;2023-02-28T22:22:55;99560.41;;;-0.21;98.31
10474;BME280;5284;50.446;7.904;2023-02-28T22:27:58;99562.16;;;-0.21;98.36
10474;BME280;5284;50.446;7.904;2023-02-28T22:33:00;99560.50;;;-0.24;98.81
10474;BME280;5284;50.446;7.904;2023-02-28T22:38:05;99559.59;;;-0.23;98.32
10474;BME280;5284;50.446;7.904;2023-02-28T22:43:09;99557.00;;;-0.24;99.05
10474;BME280;5284;50.446;7.904;2023-02-28T22:48:12;99561.41;;;-0.25;99.19
10474;BME280;5284;50.446;7.904;2023-02-28T22:53:16;99553.66;;;-0.29;99.83
10474;BME280;5284;50.446;7.904;2023-02-28T22:58:19;99559.78;;;-0.30;99.74
10474;BME280;5284;50.446;7.904;2023-02-28T23:03:23;99563.41;;;-0.36;100.00
10474;BME280;5284;50.446;7.904;2023-02-28T23:08:27;99553.00;;;-0.39;100.00
10474;BME280;5284;50.446;7.904;2023-02-28T23:13:30;99567.09;;;-0.43;100.00
10474;BME280;5284;50.446;7.904;2023-02-28T23:18:33;99564.72;;;-0.53;100.00
10474;BME280;5284;50.446;7.904;2023-02-28T23:23:37;99571.03;;;-0.60;100.00
10474;BME280;5284;50.446;7.904;2023-02-28T23:28:41;99569.28;;;-0.60;100.00
10474;BME280;5284;50.446;7.904;2023-02-28T23:33:44;99568.56;;;-0.66;100.00
10474;BME280;5284;50.446;7.904;2023-02-28T23:38:50;99569.38;;;-0.63;100.00
10474;BME280;5284;50.446;7.904;2023-02-28T23:43:53;99559.06;;;-0.70;100.00
10474;BME280;5284;50.446;7.904;2023-02-28T23:48:57;99554.75;;;-0.73;100.00
10474;BME280;5284;50.446;7.904;2023-02-28T23:54:01;99551.38;;;-0.76;100.00
10474;BME280;5284;50.446;7.904;2023-02-28T23:59:04;99550.50;;;-0.77;100.00
